Metsaborg — PBFL — position and weather

sailwx.info

Track history (hours):
 
Tides and Currents Weather Stations Pressure Air Temp Water Temp Dewpoint Dewpoint Depression Visibility Wind Speed Wind Dir Waves Ship Positions

Metsaborg

Last reported at 2016-Aug-26 22:29 UTC. Time now 2016-Aug-26 23:29 UTC.
Position N 55°46' E 012°36'.

Length 12 m.

Type: Port tender. MMSI: 244870551.

Date/timePositionNaut miles runAvg speedWind from/ knotsBaromVisibWave heightAir tempDewpointWater temp
2016-Aug-26 22:29N 55°46' E 012°36'0 0.0
2016-Aug-26 21:32N 55°46' E 012°36'0 0.0
2016-Aug-26 20:32N 55°46' E 012°36'0 0.0
2016-Aug-26 19:32N 55°46' E 012°36'0 0.0
2016-Aug-26 18:32N 55°46' E 012°36'0 0.0
2016-Aug-26 17:32N 55°46' E 012°36'0 0.0
2016-Aug-26 16:29N 55°46' E 012°36'0 0.0
2016-Aug-26 15:32N 55°46' E 012°36'0 0.0
2016-Aug-26 14:29N 55°46' E 012°36'0 0.0
2016-Aug-26 13:32N 55°46' E 012°36'0 0.0
2016-Aug-26 12:32N 55°46' E 012°36'0 0.0
2016-Aug-26 11:23N 55°46' E 012°36'0 0.0
2016-Aug-26 10:32N 55°46' E 012°36'0 0.0
2016-Aug-26 09:26N 55°46' E 012°36'4 4.4
2016-Aug-26 08:31N 55°42' E 012°36'0 0.0
2016-Aug-26 07:31N 55°42' E 012°36'0 0.0
2016-Aug-26 06:32N 55°42' E 012°36'0 0.0
2016-Aug-26 04:32N 55°42' E 012°36'0 0.0
2016-Aug-26 03:32N 55°42' E 012°36'0 0.0
2016-Aug-26 02:32N 55°42' E 012°36'0 0.0
2016-Aug-26 01:32N 55°42' E 012°36'0 0.0
2016-Aug-26 00:32N 55°42' E 012°36'0 0.0
2016-Aug-25 23:32N 55°42' E 012°36'0 0.0
2016-Aug-25 22:32N 55°42' E 012°36'0 0.0
2016-Aug-25 21:32N 55°42' E 012°36'0 0.0
2016-Aug-25 20:32N 55°42' E 012°36'0 0.0
2016-Aug-25 19:32N 55°42' E 012°36'0 0.0
2016-Aug-25 18:29N 55°42' E 012°36'0 0.0
2016-Aug-25 17:32N 55°42' E 012°36'0 0.0
2016-Aug-25 16:32N 55°42' E 012°36'0 0.0
2016-Aug-25 15:32N 55°42' E 012°36'0 0.0
2016-Aug-25 14:32N 55°42' E 012°36'0 0.0
2016-Aug-25 13:32N 55°42' E 012°36'0 0.0
2016-Aug-25 12:32N 55°42' E 012°36'0 0.0
2016-Aug-25 11:32N 55°42' E 012°36'0 0.0
2016-Aug-25 10:32N 55°42' E 012°36'0 0.0
2016-Aug-25 09:32N 55°42' E 012°36'0 0.0
2016-Aug-25 08:32N 55°42' E 012°36'0 0.0
2016-Aug-25 07:32N 55°42' E 012°36'0 0.0
2016-Aug-25 06:32N 55°42' E 012°36'0 0.0
2016-Aug-25 04:32N 55°42' E 012°36'0 0.0
2016-Aug-25 03:32N 55°42' E 012°36'0 0.0
2016-Aug-25 02:32N 55°42' E 012°36'0 0.0
2016-Aug-25 01:32N 55°42' E 012°36'0 0.0
2016-Aug-25 00:32N 55°42' E 012°36'0 0.0
2016-Aug-24 23:32N 55°42' E 012°36'0 0.0
2016-Aug-24 22:32N 55°42' E 012°36'0 0.0
2016-Aug-24 21:32N 55°42' E 012°36'0 0.0
2016-Aug-24 20:32N 55°42' E 012°36'0 0.0
2016-Aug-24 19:32N 55°42' E 012°36'0 0.0
2016-Aug-24 18:32N 55°42' E 012°36'0 0.0
2016-Aug-24 17:32N 55°42' E 012°36'0 0.0
2016-Aug-24 16:32N 55°42' E 012°36'0 0.0
2016-Aug-24 15:32N 55°42' E 012°36'0 0.0
2016-Aug-24 14:32N 55°42' E 012°36'0 0.0
2016-Aug-24 13:32N 55°42' E 012°36'0 0.0
2016-Aug-24 12:32N 55°42' E 012°36'0 0.0
2016-Aug-24 11:32N 55°42' E 012°36'0 0.0
2016-Aug-24 10:32N 55°42' E 012°36'0 0.0
2016-Aug-24 09:32N 55°42' E 012°36'0 0.1
2016-Aug-24 08:33N 55°42' E 012°36'7 6.5
2016-Aug-24 07:32N 55°36' E 012°41'0 0.0
2016-Aug-24 06:32N 55°36' E 012°41'0 0.0
2016-Aug-24 04:26N 55°36' E 012°41'0 0.0
2016-Aug-24 03:33N 55°36' E 012°41'0 0.0
2016-Aug-24 02:33N 55°36' E 012°41'0 0.0
2016-Aug-24 01:33N 55°36' E 012°41'0 0.0
2016-Aug-24 00:33N 55°36' E 012°41'0 0.0
2016-Aug-23 23:33N 55°36' E 012°41'0 0.0
2016-Aug-23 22:33N 55°36' E 012°41'0 0.0
2016-Aug-23 21:33N 55°36' E 012°41'0 0.0
2016-Aug-23 20:33N 55°36' E 012°41'0 0.0
2016-Aug-23 19:33N 55°36' E 012°41'0 0.0
2016-Aug-23 18:33N 55°36' E 012°41'0 0.0
2016-Aug-23 17:33N 55°36' E 012°41'0 0.0
2016-Aug-23 16:33N 55°36' E 012°41'0 0.0
2016-Aug-23 15:30N 55°36' E 012°41'0 0.0
2016-Aug-23 14:30N 55°36' E 012°41'0 0.0
2016-Aug-23 13:33N 55°36' E 012°41'5 4.8
2016-Aug-23 12:33N 55°31' E 012°39'  
Track history (hours):
 
Tides and Currents Weather Stations Pressure Air Temp Water Temp Dewpoint Dewpoint Depression Visibility Wind Speed Wind Dir Waves Ship Positions

Metsaborg

Last reported at 2016-Aug-26 22:29 UTC. Time now 2016-Aug-26 23:29 UTC.
Position N 55°46' E 012°36'.

Length 12 m.

Type: Port tender. MMSI: 244870551.

Date/timePositionNaut miles runAvg speedWind from/ knotsBaromVisibWave heightAir tempDewpointWater temp
2016-Aug-26 22:29N 55°46' E 012°36'0 0.0
2016-Aug-26 21:32N 55°46' E 012°36'0 0.0
2016-Aug-26 20:32N 55°46' E 012°36'0 0.0
2016-Aug-26 19:32N 55°46' E 012°36'0 0.0
2016-Aug-26 18:32N 55°46' E 012°36'0 0.0
2016-Aug-26 17:32N 55°46' E 012°36'0 0.0
2016-Aug-26 16:29N 55°46' E 012°36'0 0.0
2016-Aug-26 15:32N 55°46' E 012°36'0 0.0
2016-Aug-26 14:29N 55°46' E 012°36'0 0.0
2016-Aug-26 13:32N 55°46' E 012°36'0 0.0
2016-Aug-26 12:32N 55°46' E 012°36'0 0.0
2016-Aug-26 11:23N 55°46' E 012°36'0 0.0
2016-Aug-26 10:32N 55°46' E 012°36'0 0.0
2016-Aug-26 09:26N 55°46' E 012°36'4 4.4
2016-Aug-26 08:31N 55°42' E 012°36'0 0.0
2016-Aug-26 07:31N 55°42' E 012°36'0 0.0
2016-Aug-26 06:32N 55°42' E 012°36'0 0.0
2016-Aug-26 04:32N 55°42' E 012°36'0 0.0
2016-Aug-26 03:32N 55°42' E 012°36'0 0.0
2016-Aug-26 02:32N 55°42' E 012°36'0 0.0
2016-Aug-26 01:32N 55°42' E 012°36'0 0.0
2016-Aug-26 00:32N 55°42' E 012°36'0 0.0
2016-Aug-25 23:32N 55°42' E 012°36'0 0.0
2016-Aug-25 22:32N 55°42' E 012°36'0 0.0
2016-Aug-25 21:32N 55°42' E 012°36'0 0.0
2016-Aug-25 20:32N 55°42' E 012°36'0 0.0
2016-Aug-25 19:32N 55°42' E 012°36'0 0.0
2016-Aug-25 18:29N 55°42' E 012°36'0 0.0
2016-Aug-25 17:32N 55°42' E 012°36'0 0.0
2016-Aug-25 16:32N 55°42' E 012°36'0 0.0
2016-Aug-25 15:32N 55°42' E 012°36'0 0.0
2016-Aug-25 14:32N 55°42' E 012°36'0 0.0
2016-Aug-25 13:32N 55°42' E 012°36'0 0.0
2016-Aug-25 12:32N 55°42' E 012°36'0 0.0
2016-Aug-25 11:32N 55°42' E 012°36'0 0.0
2016-Aug-25 10:32N 55°42' E 012°36'0 0.0
2016-Aug-25 09:32N 55°42' E 012°36'0 0.0
2016-Aug-25 08:32N 55°42' E 012°36'0 0.0
2016-Aug-25 07:32N 55°42' E 012°36'0 0.0
2016-Aug-25 06:32N 55°42' E 012°36'0 0.0
2016-Aug-25 04:32N 55°42' E 012°36'0 0.0
2016-Aug-25 03:32N 55°42' E 012°36'0 0.0
2016-Aug-25 02:32N 55°42' E 012°36'0 0.0
2016-Aug-25 01:32N 55°42' E 012°36'0 0.0
2016-Aug-25 00:32N 55°42' E 012°36'0 0.0
2016-Aug-24 23:32N 55°42' E 012°36'0 0.0
2016-Aug-24 22:32N 55°42' E 012°36'0 0.0
2016-Aug-24 21:32N 55°42' E 012°36'0 0.0
2016-Aug-24 20:32N 55°42' E 012°36'0 0.0
2016-Aug-24 19:32N 55°42' E 012°36'0 0.0
2016-Aug-24 18:32N 55°42' E 012°36'0 0.0
2016-Aug-24 17:32N 55°42' E 012°36'0 0.0
2016-Aug-24 16:32N 55°42' E 012°36'0 0.0
2016-Aug-24 15:32N 55°42' E 012°36'0 0.0
2016-Aug-24 14:32N 55°42' E 012°36'0 0.0
2016-Aug-24 13:32N 55°42' E 012°36'0 0.0
2016-Aug-24 12:32N 55°42' E 012°36'0 0.0
2016-Aug-24 11:32N 55°42' E 012°36'0 0.0
2016-Aug-24 10:32N 55°42' E 012°36'0 0.0
2016-Aug-24 09:32N 55°42' E 012°36'0 0.1
2016-Aug-24 08:33N 55°42' E 012°36'7 6.5
2016-Aug-24 07:32N 55°36' E 012°41'0 0.0
2016-Aug-24 06:32N 55°36' E 012°41'0 0.0
2016-Aug-24 04:26N 55°36' E 012°41'0 0.0
2016-Aug-24 03:33N 55°36' E 012°41'0 0.0
2016-Aug-24 02:33N 55°36' E 012°41'0 0.0
2016-Aug-24 01:33N 55°36' E 012°41'0 0.0
2016-Aug-24 00:33N 55°36' E 012°41'0 0.0
2016-Aug-23 23:33N 55°36' E 012°41'0 0.0
2016-Aug-23 22:33N 55°36' E 012°41'0 0.0
2016-Aug-23 21:33N 55°36' E 012°41'0 0.0
2016-Aug-23 20:33N 55°36' E 012°41'0 0.0
2016-Aug-23 19:33N 55°36' E 012°41'0 0.0
2016-Aug-23 18:33N 55°36' E 012°41'0 0.0
2016-Aug-23 17:33N 55°36' E 012°41'0 0.0
2016-Aug-23 16:33N 55°36' E 012°41'0 0.0
2016-Aug-23 15:30N 55°36' E 012°41'0 0.0
2016-Aug-23 14:30N 55°36' E 012°41'0 0.0
2016-Aug-23 13:33N 55°36' E 012°41'5 4.8
2016-Aug-23 12:33N 55°31' E 012°39'  

Dump ship's entire track history